Portada
METAR-TAF:

METAR-TAF

Aeropuertos :

Altenstadt, Alemania

latitud: 47-50N, longitud: 010-52E, altitud: 739 m

Observación

El informe se hizo hace 42 minutos, a las 00:20 UTC
Viento 3 kt del oeste-suroeste
Temperatura -8°C
Humedad 79%
Presión 999 hPa

METAR: ETHA 250020Z AUTO 25003KT //// // ////// M08/M11 Q0999 ///

Hora: 02:02 (01:02 UTC)


TAF: falta

Observaciones y pronósticos meteorológicos de más de 4000 aeropuertos (mensajes METAR y TAF).

Los puntos amarillos y rojos representan las estaciones disponibles.

Ponga el ratón en el punto deseado para ver el nombre de la estación.

Haga clic para ver las observaciones y los pronósticos meteorológicos.

Para cambiar el mapa : haga clic en los botones verdes con una cruz de color negro para hacer un zoom, en el botón verde con un guión para alejar o en las flechas verdes para mapas adyacentes.


METAR-TAF: